Terminal Aerodrome Forecast
Issued by NWS Wichita, KS

Home | Current Version | Previous Version | Graphics & Text | Print | Product List | Glossary On
Versions: 1 2 3 4 5 6 7 8 9 10 11 12 13 14
000
FTUS43 KICT 282335
TAFICT
TAF
KICT 282335Z 2900/2924 36010KT P6SM BKN100
     FM290300 03007KT P6SM FEW250
     FM290600 VRB03KT P6SM SKC
     FM291500 01008KT P6SM SKC=

USA.gov is the U.S. government's official web portal to all federal, state and local government web resources and services.